Terminal Aerodrome Forecast
Issued by NWS

Home | Current Version | Previous Version | Text Only | Print | Product List | Glossary On
Versions: 1 2 3 4 5 6 7 8 9 10 11 12 13 14 15 16 17 18 19 20 21 22 23 24 25 26 27 28
000
FTUS44 KBMX 261306 AAA
TAFMGM
TAF AMD
KMGM 261306Z 2613/2712 11005KT 5SM BR OVC005
     FM261500 14008KT 6SM HZ SCT008 BKN025
     FM261600 16008KT P6SM -SHRA VCTS BKN009 OVC015CB
      TEMPO 2617/2620 2SM +TSRA SCT009 BKN015CB
     FM262100 21008KT P6SM VCSH SCT025 BKN050=

USA.gov is the U.S. government's official web portal to all federal, state and local government web resources and services.